KCXE

Chase City Municipal Airport

Chase City, Virginia, USA
METAR KCXE 182135Z AUTO 17003KT 7SM BKN004 BKN027 OVC049 23/23 A2990 RMK AO1 P0006 T02320232
Observed Flight Rules
Aug-18 @ 21:35 UTC (17 minutes ago) Instrument Flight Rules
Wind Visibility Clouds
170° at 3 knots 7 miles
  • Broken at 400' AGL
  • Broken at 2,700' AGL
  • Overcast at 4,900' AGL
Temperatures Readings Precipitation
Current 23°C / 73°F
Dewpoint 23°C / 73°F
Humidity 100%
Altimeter 29.9" Hg
Pressure 1013 hPa
Elevation 153
Current Rain 0.06
METAR KCXE 182135Z AUTO 17003KT 7SM BKN004 BKN027 OVC049 23/23 A2990 RMK AO1 P0006 T02320232
Observed Flight Rules
Aug-18 @ 21:35 UTC
(17 minutes ago)
LIFR
Wind Visibility
170° at 3 knots 7 miles
Clouds
  • Broken at 400' AGL
  • Broken at 2,700' AGL
  • Overcast at 4,900' AGL
Temperature Dewpoint
23°C / 73°F 23°C / 73°F
Humidity Altimeter Pressure
100% 29.9" Hg 1013 hPa
Current Rain
0.06